Time;durP1;ratioP1;P1;durP2;ratioP2;P2;SDS_P1;SDS_P2;PMS_P1;PMS_P2;Temp;Humidity;BMP_temperature;BMP_pressure;BME280_temperature;BME280_humidity;BME280_pressure;Samples;Min_cycle;Max_cycle;Signal;HPM_P1;HPM_P2
2022/01/01 04:03:08;;;;;;;26.02;11.93;;;12.90;89.20;;;;;;5132893;27;20435;-38
2022/01/01 04:05:35;;;;;;;26.05;11.18;;;12.90;89.10;;;;;;5114964;28;20371;-37
2022/01/01 04:08:02;;;;;;;48.10;16.25;;;12.90;89.00;;;;;;5133259;28;20023;-37
2022/01/01 04:10:29;;;;;;;24.05;10.95;;;13.00;88.90;;;;;;5131841;28;20031;-39
2022/01/01 04:12:54;;;;;;;24.67;13.32;;;13.00;88.80;;;;;;5113525;28;20096;-38
2022/01/01 04:15:20;;;;;;;26.48;12.02;;;13.00;88.60;;;;;;5132283;28;20023;-37
2022/01/01 04:17:45;;;;;;;30.70;12.75;;;13.00;88.60;;;;;;5114226;28;20024;-37
2022/01/01 04:20:13;;;;;;;19.98;10.50;;;13.00;88.70;;;;;;5113886;28;20019;-37
2022/01/01 04:22:38;;;;;;;21.95;10.60;;;13.00;88.60;;;;;;5132296;28;20102;-38
2022/01/01 04:25:04;;;;;;;29.02;12.13;;;13.00;88.60;;;;;;5132032;28;20051;-37
2022/01/01 04:27:30;;;;;;;23.35;10.32;;;13.00;88.40;;;;;;5132631;28;20085;-38
2022/01/01 04:29:55;;;;;;;20.67;10.98;;;13.10;88.30;;;;;;5131915;28;20024;-37
2022/01/01 04:32:21;;;;;;;22.15;9.25;;;13.10;88.20;;;;;;5132050;28;20023;-38
2022/01/01 04:34:47;;;;;;;18.98;10.27;;;13.10;88.20;;;;;;5131639;28;20054;-38
2022/01/01 04:37:15;;;;;;;19.92;10.73;;;13.10;88.10;;;;;;5113196;28;20062;-44
2022/01/01 04:39:41;;;;;;;15.80;7.78;;;13.10;88.00;;;;;;5131666;28;20069;-49
2022/01/01 04:42:07;;;;;;;23.27;10.43;;;13.10;87.90;;;;;;5131518;28;20081;-49
2022/01/01 04:44:33;;;;;;;22.65;9.15;;;13.10;87.80;;;;;;5131243;28;20098;-49
2022/01/01 04:46:59;;;;;;;22.70;10.40;;;13.20;87.70;;;;;;5113222;28;20055;-53
2022/01/01 04:49:25;;;;;;;23.77;10.13;;;13.10;87.70;;;;;;5132224;28;20019;-50
2022/01/01 04:51:50;;;;;;;27.75;11.43;;;13.00;88.00;;;;;;5131867;28;20168;-50
2022/01/01 04:54:17;;;;;;;24.65;11.38;;;13.10;87.90;;;;;;5132194;28;20031;-50
2022/01/01 04:56:44;;;;;;;27.25;11.85;;;13.00;88.00;;;;;;5132015;28;20031;-49
2022/01/01 04:59:14;;;;;;;26.88;10.85;;;13.00;88.00;;;;;;5132944;28;20023;-48
2022/01/01 05:01:40;;;;;;;26.57;11.30;;;13.00;88.00;;;;;;5131908;28;20043;-50
2022/01/01 05:04:07;;;;;;;28.08;13.32;;;13.00;88.00;;;;;;5131814;28;20387;-52
2022/01/01 05:06:36;;;;;;;28.48;10.75;;;13.00;88.00;;;;;;5131892;28;20520;-48
2022/01/01 05:09:02;;;;;;;25.35;11.38;;;12.90;88.10;;;;;;5132036;28;20523;-50
2022/01/01 05:11:28;;;;;;;25.35;11.60;;;12.90;88.00;;;;;;5131796;28;20019;-52
2022/01/01 05:13:54;;;;;;;23.50;10.85;;;13.00;87.90;;;;;;5120936;28;20416;-49
2022/01/01 05:16:20;;;;;;;22.65;10.80;;;12.90;87.90;;;;;;5117901;28;20099;-48
2022/01/01 05:18:47;;;;;;;21.92;11.20;;;13.10;87.60;;;;;;5117612;28;20019;-47
2022/01/01 05:21:13;;;;;;;24.50;11.43;;;13.10;87.40;;;;;;5117981;28;20491;-47
2022/01/01 05:23:39;;;;;;;24.23;10.88;;;13.00;87.60;;;;;;5099024;28;20459;-48
2022/01/01 05:26:04;;;;;;;28.17;11.00;;;12.90;87.70;;;;;;5117326;28;20020;-50
2022/01/01 05:28:30;;;;;;;26.65;10.18;;;13.00;87.00;;;;;;5118463;28;20028;-52
2022/01/01 05:30:56;;;;;;;26.08;10.93;;;13.10;87.00;;;;;;5117881;28;20064;-50
2022/01/01 05:33:22;;;;;;;24.02;10.52;;;13.10;86.70;;;;;;5099517;28;20475;-47
2022/01/01 05:35:48;;;;;;;22.30;9.93;;;13.10;86.80;;;;;;5117347;28;20099;-49
2022/01/01 05:38:13;;;;;;;18.52;9.50;;;13.10;86.60;;;;;;5117907;28;20026;-48
2022/01/01 05:40:39;;;;;;;22.13;9.93;;;13.10;86.60;;;;;;5098951;28;20043;-48
2022/01/01 05:43:12;;;;;;;26.40;8.93;;;13.10;86.60;;;;;;5117041;28;20038;-47
2022/01/01 05:45:38;;;;;;;23.83;9.48;;;13.10;86.50;;;;;;5098676;28;20092;-51
2022/01/01 05:48:04;;;;;;;26.85;9.40;;;13.10;86.40;;;;;;5116732;28;20015;-48
2022/01/01 05:50:30;;;;;;;20.17;8.98;;;13.10;86.40;;;;;;5117441;28;20396;-48
2022/01/01 05:52:55;;;;;;;22.00;11.25;;;13.20;86.30;;;;;;5117257;28;20062;-48
2022/01/01 05:55:21;;;;;;;27.05;8.57;;;13.10;86.40;;;;;;5117193;28;20104;-48
2022/01/01 05:57:47;;;;;;;23.00;10.00;;;13.10;86.50;;;;;;5116993;28;20536;-51
2022/01/01 06:00:13;;;;;;;27.73;8.68;;;13.10;86.30;;;;;;5116801;28;20024;-48
2022/01/01 06:02:43;;;;;;;23.85;8.80;;;13.10;86.30;;;;;;5095080;28;20044;-48
2022/01/01 06:05:09;;;;;;;26.25;11.73;;;13.20;86.00;;;;;;5096518;28;20036;-49
2022/01/01 06:07:34;;;;;;;17.05;8.80;;;13.20;86.10;;;;;;5096741;28;20043;-50
2022/01/01 06:10:00;;;;;;;20.02;7.97;;;13.20;86.00;;;;;;5096387;28;20028;-52
2022/01/01 06:12:26;;;;;;;30.17;8.32;;;13.20;85.80;;;;;;5097273;28;20048;-53
2022/01/01 06:14:53;;;;;;;16.45;9.45;;;13.10;85.90;;;;;;5094840;28;20031;-46
2022/01/01 06:17:18;;;;;;;20.08;7.53;;;13.10;86.00;;;;;;5095652;28;20369;-51
2022/01/01 06:19:44;;;;;;;26.00;9.70;;;13.20;85.90;;;;;;5096227;28;20078;-49
2022/01/01 06:22:11;;;;;;;16.48;6.55;;;13.20;85.90;;;;;;5096847;28;20484;-50
2022/01/01 06:24:36;;;;;;;12.73;7.18;;;13.20;85.90;;;;;;5095120;28;20101;-48
2022/01/01 06:27:03;;;;;;;16.10;8.27;;;13.10;86.10;;;;;;5096546;28;20461;-48
2022/01/01 06:29:28;;;;;;;20.30;6.38;;;13.20;86.00;;;;;;5096139;28;20057;-48
2022/01/01 06:31:54;;;;;;;20.00;7.50;;;13.20;85.80;;;;;;5095069;28;20054;-49
2022/01/01 06:34:19;;;;;;;25.25;7.35;;;13.10;86.00;;;;;;5096005;28;20028;-50
2022/01/01 06:36:45;;;;;;;17.80;7.57;;;13.20;85.90;;;;;;5095690;28;20043;-50
2022/01/01 06:39:11;;;;;;;18.33;6.68;;;13.10;85.90;;;;;;5096109;28;20396;-52
2022/01/01 06:41:36;;;;;;;17.88;7.15;;;13.10;85.90;;;;;;5096399;28;20024;-50
2022/01/01 06:44:02;;;;;;;13.75;6.75;;;13.10;86.00;;;;;;5095638;28;20450;-49
2022/01/01 06:46:28;;;;;;;24.60;7.70;;;13.10;85.80;;;;;;5096793;28;20031;-50
2022/01/01 06:48:53;;;;;;;14.07;6.47;;;13.10;85.70;;;;;;5096624;28;20103;-51
2022/01/01 06:51:19;;;;;;;11.52;5.97;;;13.20;85.60;;;;;;5096136;28;20456;-47
2022/01/01 06:53:45;;;;;;;16.77;7.60;;;13.10;85.80;;;;;;5094193;28;20052;-47
2022/01/01 06:56:11;;;;;;;15.95;6.18;;;13.10;85.60;;;;;;5094226;28;20031;-50
2022/01/01 06:58:37;;;;;;;14.52;6.45;;;13.10;85.80;;;;;;5094830;28;20036;-48
2022/01/01 07:01:04;;;;;;;18.23;5.70;;;13.20;85.60;;;;;;5098334;28;20039;-49
2022/01/01 07:03:29;;;;;;;14.23;5.85;;;13.10;85.50;;;;;;5115712;28;20026;-49
2022/01/01 07:05:55;;;;;;;17.55;6.47;;;13.20;85.60;;;;;;5079812;28;20028;-49
2022/01/01 07:08:21;;;;;;;9.90;5.65;;;13.20;85.20;;;;;;5115232;28;20023;-48
2022/01/01 07:10:46;;;;;;;17.17;6.43;;;13.20;84.90;;;;;;5116274;28;20092;-51
2022/01/01 07:13:13;;;;;;;12.77;6.30;;;13.20;85.20;;;;;;5115540;28;20019;-47
2022/01/01 07:15:39;;;;;;;17.23;5.65;;;13.10;85.30;;;;;;5115663;28;20387;-50
2022/01/01 07:18:05;;;;;;;15.23;6.93;;;13.10;85.20;;;;;;5114989;28;20038;-48
2022/01/01 07:20:31;;;;;;;17.13;6.78;;;13.30;84.80;;;;;;5115902;28;20102;-47
2022/01/01 07:22:56;;;;;;;13.40;6.93;;;13.30;84.60;;;;;;5115131;28;20027;-47
2022/01/01 07:25:22;;;;;;;17.35;6.20;;;13.20;84.80;;;;;;5115028;28;20439;-48
2022/01/01 07:27:48;;;;;;;12.55;5.60;;;13.20;84.70;;;;;;5114843;28;20015;-47
2022/01/01 07:30:14;;;;;;;17.33;6.00;;;13.20;84.70;;;;;;5115624;28;20024;-49
2022/01/01 07:32:41;;;;;;;9.95;5.22;;;13.20;84.60;;;;;;5114636;28;20028;-48
2022/01/01 07:35:08;;;;;;;17.60;5.65;;;13.20;84.60;;;;;;5114798;28;20517;-46
2022/01/01 07:37:34;;;;;;;18.35;6.18;;;13.20;84.60;;;;;;5096013;28;20116;-48
2022/01/01 07:40:00;;;;;;;13.23;6.15;;;13.20;84.60;;;;;;5114580;28;20031;-47
2022/01/01 07:42:25;;;;;;;11.77;5.15;;;13.20;84.50;;;;;;5096442;28;20028;-48
2022/01/01 07:44:51;;;;;;;11.85;5.55;;;13.20;84.50;;;;;;5114947;28;20438;-47
2022/01/01 07:47:16;;;;;;;9.95;5.65;;;13.20;84.60;;;;;;5114228;28;20407;-50
2022/01/01 07:49:42;;;;;;;13.98;4.82;;;13.20;84.50;;;;;;5114923;28;20051;-48
2022/01/01 07:52:09;;;;;;;9.98;4.32;;;13.20;84.30;;;;;;5114248;28;20076;-48
2022/01/01 07:54:34;;;;;;;16.20;5.07;;;13.20;84.20;;;;;;5114427;28;20123;-48
2022/01/01 07:57:03;;;;;;;15.02;5.28;;;13.20;84.00;;;;;;5095458;28;20485;-50
2022/01/01 07:59:28;;;;;;;13.05;5.03;;;13.20;84.20;;;;;;5096646;28;20058;-47
2022/01/01 14:03:06;;;;;;;7.75;3.03;;;14.70;76.50;;;;;;5133454;27;20464;-47
2022/01/01 14:05:34;;;;;;;7.70;2.10;;;14.70;76.30;;;;;;5113917;28;20434;-47
2022/01/01 14:08:13;;;;;;;3.58;1.88;;;14.80;76.00;;;;;;5132296;28;20039;-49
2022/01/01 14:10:38;;;;;;;6.13;2.20;;;15.00;75.50;;;;;;5132176;28;20039;-51
2022/01/01 14:13:04;;;;;;;5.75;2.15;;;14.90;75.50;;;;;;5132249;28;20166;-48
2022/01/01 14:15:30;;;;;;;4.13;1.80;;;14.90;75.80;;;;;;5130462;28;20046;-50
2022/01/01 14:18:09;;;;;;;4.07;2.03;;;14.80;76.20;;;;;;5124158;28;20027;-50
2022/01/01 14:20:47;;;;;;;8.32;2.10;;;14.80;76.00;;;;;;5132731;28;20031;-51
2022/01/01 14:23:32;;;;;;;8.13;2.00;;;14.70;76.50;;;;;;5133345;28;20466;-51
2022/01/01 14:25:59;;;;;;;8.18;2.65;;;14.80;76.10;;;;;;5133223;28;20366;-50
2022/01/01 14:28:25;;;;;;;14.63;5.80;;;14.80;76.30;;;;;;5131596;28;20075;-52
2022/01/01 14:30:53;;;;;;;7.50;2.70;;;14.80;76.60;;;;;;5132014;28;20031;-49
2022/01/01 14:33:20;;;;;;;6.05;1.83;;;14.80;76.50;;;;;;5133247;28;20023;-48
2022/01/01 14:35:46;;;;;;;8.55;3.10;;;14.60;76.80;;;;;;5131177;28;20020;-38
2022/01/01 14:38:12;;;;;;;5.72;2.85;;;14.50;77.30;;;;;;5131756;28;20069;-37
2022/01/01 14:40:38;;;;;;;5.93;2.60;;;14.50;77.50;;;;;;5131888;28;20555;-37
2022/01/01 14:43:11;;;;;;;8.27;3.20;;;14.40;77.70;;;;;;5131732;28;20015;-37
2022/01/01 14:45:39;;;;;;;12.38;4.07;;;14.30;78.20;;;;;;5129414;28;20026;-37
2022/01/01 14:48:16;;;;;;;7.35;2.70;;;14.30;77.90;;;;;;5130095;28;20089;-38
2022/01/01 14:51:12;;;;;;;6.18;2.40;;;14.30;78.20;;;;;;5131088;27;20483;-49
2022/01/01 14:53:46;;;;;;;8.23;2.83;;;14.20;78.20;;;;;;5098684;28;20425;-49
2022/01/01 14:56:24;;;;;;;8.93;2.47;;;14.20;78.20;;;;;;5131495;28;20015;-51
2022/01/01 14:59:02;;;;;;;3.40;2.03;;;14.20;78.40;;;;;;5131781;28;20016;-50
2022/01/01 15:01:27;;;;;;;6.03;2.70;;;14.10;78.50;;;;;;5131400;28;20039;-49
2022/01/01 15:03:54;;;;;;;9.82;3.05;;;14.00;79.00;;;;;;5132364;28;20475;-49
2022/01/01 15:06:24;;;;;;;10.73;3.10;;;14.00;79.00;;;;;;5133141;28;20024;-52
2022/01/01 15:08:56;;;;;;;6.75;2.75;;;13.90;79.00;;;;;;5132100;28;20054;-50
2022/01/01 15:11:24;;;;;;;16.48;3.03;;;13.80;79.50;;;;;;5130905;28;20046;-49
2022/01/01 15:13:51;;;;;;;5.68;1.95;;;13.80;79.40;;;;;;5121765;28;20028;-48
2022/01/01 15:16:18;;;;;;;6.80;2.78;;;13.80;79.60;;;;;;5117717;28;20349;-47
2022/01/01 15:18:45;;;;;;;4.88;2.42;;;13.80;79.50;;;;;;5115977;28;20022;-49
2022/01/01 15:21:15;;;;;;;4.68;2.50;;;13.80;79.50;;;;;;5116773;28;20539;-47
2022/01/01 15:23:42;;;;;;;6.97;3.08;;;13.80;79.50;;;;;;5116504;28;20032;-49
2022/01/01 15:26:10;;;;;;;8.40;2.88;;;13.70;79.80;;;;;;5115911;28;20080;-47
2022/01/01 15:28:37;;;;;;;10.65;5.05;;;13.70;80.10;;;;;;5117707;28;20077;-50
2022/01/01 15:31:21;;;;;;;6.15;2.92;;;13.70;80.30;;;;;;5117910;28;20019;-47
2022/01/01 15:33:47;;;;;;;7.55;3.45;;;13.60;80.50;;;;;;5118614;28;20059;-48
2022/01/01 15:38:48;;;;;;;5.45;2.70;;;13.50;80.90;;;;;;5117873;28;20027;-49
2022/01/01 15:43:48;;;;;;;7.40;3.08;;;13.50;80.70;;;;;;5117011;28;20464;-49
2022/01/01 15:46:14;;;;;;;9.05;3.10;;;13.40;81.00;;;;;;5116669;28;20388;-48
2022/01/01 15:48:40;;;;;;;7.30;2.53;;;13.40;81.00;;;;;;5116821;28;20027;-48
2022/01/01 15:51:06;;;;;;;6.75;2.85;;;13.40;81.00;;;;;;5116899;28;20024;-47
2022/01/01 15:53:37;;;;;;;6.68;4.18;;;13.40;81.20;;;;;;5117483;28;20395;-47
2022/01/01 15:56:14;;;;;;;7.32;2.80;;;13.30;81.10;;;;;;5116084;28;20051;-50
2022/01/01 15:58:51;;;;;;;3.38;2.67;;;13.30;81.50;;;;;;5115599;28;20038;-49
2022/01/01 16:01:42;;;;;;;8.15;3.58;;;13.30;81.50;;;;;;5115619;28;20062;-48
2022/01/01 16:04:44;;;;;;;3.63;2.50;;;13.30;81.50;;;;;;5115583;28;20016;-49
2022/01/01 16:07:10;;;;;;;5.15;2.78;;;13.30;81.70;;;;;;5115924;28;20020;-48
2022/01/01 16:09:48;;;;;;;9.98;3.20;;;13.30;81.60;;;;;;5116086;28;20024;-48
2022/01/01 16:12:20;;;;;;;5.03;2.53;;;13.20;81.90;;;;;;5116295;28;20020;-47
2022/01/01 16:15:14;;;;;;;12.38;3.38;;;13.20;82.10;;;;;;5115478;28;20036;-47
2022/01/01 16:17:41;;;;;;;5.13;3.22;;;13.20;82.20;;;;;;5104110;28;20036;-48
2022/01/01 16:20:08;;;;;;;2.65;1.90;;;13.20;82.30;;;;;;5116008;28;20327;-48
2022/01/01 16:22:35;;;;;;;6.07;2.72;;;13.10;82.40;;;;;;5116012;28;20527;-50
2022/01/01 16:25:02;;;;;;;3.97;2.58;;;13.10;82.60;;;;;;5115413;28;20026;-49
2022/01/01 16:27:29;;;;;;;7.25;3.15;;;13.10;82.60;;;;;;5115800;28;20051;-48
2022/01/01 16:29:56;;;;;;;7.47;4.03;;;13.00;82.70;;;;;;5116141;28;20020;-51
2022/01/01 16:32:22;;;;;;;5.97;3.67;;;12.90;83.00;;;;;;5116057;28;20032;-49
2022/01/01 16:34:52;;;;;;;9.45;3.67;;;12.90;83.10;;;;;;5115701;28;20020;-49
2022/01/01 16:37:18;;;;;;;7.45;2.83;;;12.90;83.20;;;;;;5115988;28;20023;-48
2022/01/01 16:39:44;;;;;;;7.07;3.03;;;12.90;83.50;;;;;;5115992;28;20043;-49
2022/01/01 16:42:12;;;;;;;4.70;2.45;;;12.80;83.70;;;;;;5115665;28;20027;-48
2022/01/01 16:44:56;;;;;;;7.70;3.72;;;12.80;83.80;;;;;;5115194;28;20027;-46
2022/01/01 16:47:38;;;;;;;5.43;3.15;;;12.80;84.10;;;;;;5116221;28;20016;-48
2022/01/01 16:50:16;;;;;;;7.05;3.03;;;12.80;84.00;;;;;;5113617;28;20015;-52
2022/01/01 16:53:02;;;;;;;5.68;3.35;;;12.70;84.30;;;;;;5098129;28;20058;-49
2022/01/01 16:55:32;;;;;;;6.70;3.17;;;12.60;84.40;;;;;;5115843;28;20065;-48
2022/01/01 16:58:05;;;;;;;6.95;3.13;;;12.60;84.60;;;;;;5115273;28;20027;-47
2022/01/01 17:00:36;;;;;;;6.32;3.28;;;12.60;84.70;;;;;;5114773;28;20028;-51
2022/01/01 17:03:04;;;;;;;9.20;3.45;;;12.60;84.70;;;;;;5114896;28;20108;-50
2022/01/01 17:05:40;;;;;;;7.43;3.42;;;12.50;84.90;;;;;;5113097;28;20154;-51
2022/01/01 17:08:06;;;;;;;7.03;3.53;;;12.40;85.30;;;;;;5116637;28;20016;-47
2022/01/01 17:10:32;;;;;;;8.07;3.53;;;12.40;85.40;;;;;;5114731;28;20030;-47
2022/01/01 17:13:00;;;;;;;9.85;4.47;;;12.40;85.50;;;;;;5115937;28;20417;-49
2022/01/01 17:15:26;;;;;;;6.05;4.22;;;12.50;85.40;;;;;;5114324;28;20030;-50
2022/01/01 17:18:16;;;;;;;6.63;4.40;;;12.50;85.40;;;;;;5114336;28;20023;-50
2022/01/01 17:20:46;;;;;;;8.20;4.07;;;12.50;85.40;;;;;;5114907;28;20030;-49
2022/01/01 17:23:15;;;;;;;6.50;3.97;;;12.40;85.50;;;;;;5114583;28;20024;-51
2022/01/01 17:25:46;;;;;;;7.93;4.10;;;12.40;85.60;;;;;;5114989;28;20023;-49
2022/01/01 17:28:42;;;;;;;11.52;4.38;;;12.40;85.60;;;;;;5115542;28;20028;-51
2022/01/01 17:31:11;;;;;;;9.15;4.43;;;12.40;85.70;;;;;;5115422;28;20023;-50
2022/01/01 17:36:25;;;;;;;9.27;4.20;;;12.30;86.00;;;;;;5115336;28;20030;-50
2022/01/01 17:41:57;;;;;;;5.05;3.78;;;12.30;85.90;;;;;;5116329;28;20084;-48
2022/01/01 17:44:24;;;;;;;5.60;4.20;;;12.30;86.10;;;;;;5116821;28;20027;-47
2022/01/01 17:46:51;;;;;;;6.55;3.85;;;12.30;86.30;;;;;;5115669;28;20024;-51
2022/01/01 17:49:22;;;;;;;4.05;2.80;;;12.30;86.30;;;;;;5115080;28;20103;-48
2022/01/01 17:51:52;;;;;;;8.13;3.70;;;12.20;86.40;;;;;;5115891;28;20031;-48
2022/01/01 17:54:20;;;;;;;12.48;4.32;;;12.20;86.60;;;;;;5116225;28;20471;-48
2022/01/01 17:56:47;;;;;;;7.05;3.90;;;12.20;86.60;;;;;;5116320;28;20024;-50
2022/01/01 17:59:14;;;;;;;7.55;4.30;;;12.20;86.70;;;;;;5115734;28;20083;-48
2022/01/01 18:01:42;;;;;;;6.07;4.32;;;12.10;86.80;;;;;;5115457;28;20044;-50
2022/01/01 18:04:12;;;;;;;5.30;3.60;;;12.20;86.80;;;;;;5114769;28;20035;-53
2022/01/01 18:06:39;;;;;;;6.72;4.57;;;12.10;86.90;;;;;;5115740;28;20024;-49
2022/01/01 18:09:09;;;;;;;10.25;4.43;;;12.00;87.20;;;;;;5115889;28;20030;-48
2022/01/01 18:11:49;;;;;;;7.72;4.35;;;12.00;87.20;;;;;;5114994;28;20039;-49
2022/01/01 18:14:15;;;;;;;5.70;4.63;;;11.90;87.40;;;;;;5113914;28;20032;-49
2022/01/01 18:16:43;;;;;;;7.80;4.70;;;11.90;87.40;;;;;;5115428;28;20081;-51
2022/01/01 18:19:13;;;;;;;8.52;4.45;;;12.00;87.20;;;;;;5115088;28;20380;-49
2022/01/01 18:21:45;;;;;;;7.22;4.88;;;11.90;87.30;;;;;;5114024;28;20024;-47
2022/01/01 18:24:31;;;;;;;14.50;5.32;;;11.90;87.50;;;;;;5112555;28;20019;-49
2022/01/01 18:27:27;;;;;;;7.35;4.22;;;12.00;87.40;;;;;;5114917;28;20028;-50
2022/01/01 18:29:58;;;;;;;8.38;4.18;;;12.10;87.20;;;;;;5114208;28;20024;-49
2022/01/01 18:32:24;;;;;;;6.65;4.60;;;12.10;86.80;;;;;;5113170;28;20027;-50
2022/01/01 18:34:51;;;;;;;5.88;4.25;;;11.90;87.10;;;;;;5113685;28;20518;-51
2022/01/01 18:37:17;;;;;;;11.70;4.47;;;11.80;87.30;;;;;;5113883;28;20034;-48
2022/01/01 18:39:45;;;;;;;8.75;4.68;;;11.90;87.50;;;;;;5113393;28;20336;-48
2022/01/01 18:42:13;;;;;;;8.48;4.85;;;11.90;87.50;;;;;;5113530;28;20020;-48
2022/01/01 18:44:40;;;;;;;11.15;4.97;;;11.90;87.50;;;;;;5113719;28;20015;-49
2022/01/01 18:47:07;;;;;;;7.85;4.45;;;11.80;87.70;;;;;;5113789;28;20444;-49
2022/01/01 18:49:35;;;;;;;10.57;5.72;;;11.80;87.80;;;;;;5115775;28;20110;-49
2022/01/01 18:52:04;;;;;;;5.18;4.07;;;11.80;88.00;;;;;;5117604;28;20033;-50
2022/01/01 18:54:37;;;;;;;11.30;5.90;;;11.80;87.60;;;;;;5118358;28;20028;-50
2022/01/01 18:57:31;;;;;;;7.88;4.00;;;11.80;87.70;;;;;;5118011;28;20034;-49
2022/01/01 19:00:15;;;;;;;10.50;5.25;;;11.80;87.60;;;;;;5108564;28;20040;-38
2022/01/01 19:02:57;;;;;;;8.90;4.82;;;11.80;87.70;;;;;;5118150;28;20044;-38
2022/01/01 19:05:26;;;;;;;12.68;5.68;;;11.80;87.80;;;;;;5117109;28;20459;-39
2022/01/01 19:07:58;;;;;;;11.23;5.90;;;11.80;88.00;;;;;;5116368;28;20024;-38
2022/01/01 19:10:35;;;;;;;9.00;5.60;;;11.80;87.70;;;;;;5117076;28;20026;-38
2022/01/01 19:13:06;;;;;;;17.08;6.70;;;11.80;87.70;;;;;;5117372;28;20383;-39
2022/01/01 19:15:34;;;;;;;;;;;11.70;88.00;;;;;;5117784;28;20026;-39
2022/01/01 19:18:07;;;;;;;9.05;4.25;;;11.60;88.10;;;;;;5116349;28;20328;-39
2022/01/01 19:20:34;;;;;;;11.07;5.90;;;11.70;88.20;;;;;;5116690;28;20110;-38
2022/01/01 19:23:01;;;;;;;9.25;4.60;;;11.80;88.10;;;;;;5117501;28;20032;-38
2022/01/01 19:25:29;;;;;;;8.45;4.88;;;11.80;87.70;;;;;;5117175;28;20024;-38
2022/01/01 19:27:59;;;;;;;13.15;7.45;;;11.80;87.90;;;;;;5117581;28;20047;-39
2022/01/01 19:30:25;;;;;;;11.63;5.05;;;11.70;87.90;;;;;;5117579;28;20019;-38
2022/01/01 19:32:56;;;;;;;8.80;5.72;;;11.70;88.20;;;;;;5117206;28;20513;-38
2022/01/01 19:35:23;;;;;;;13.63;5.57;;;11.70;88.20;;;;;;5117386;28;20049;-39
2022/01/01 19:37:49;;;;;;;14.52;6.88;;;11.70;88.10;;;;;;5117788;28;20472;-38
2022/01/01 19:40:19;;;;;;;11.27;5.95;;;11.60;88.30;;;;;;5117273;28;20031;-38
2022/01/01 19:42:47;;;;;;;10.98;5.82;;;11.70;88.10;;;;;;5117509;28;20503;-38
2022/01/01 19:45:15;;;;;;;8.43;5.00;;;11.70;88.00;;;;;;5117131;28;20027;-38
2022/01/01 19:47:55;;;;;;;10.85;5.00;;;11.80;87.90;;;;;;5117534;28;20027;-38
2022/01/01 19:50:21;;;;;;;8.23;4.10;;;11.80;87.60;;;;;;5117290;28;20100;-39
2022/01/01 19:52:46;;;;;;;10.88;5.63;;;11.80;87.40;;;;;;5117374;28;20040;-38
2022/01/01 19:55:14;;;;;;;10.93;5.55;;;11.80;87.80;;;;;;5117585;28;20027;-39
2022/01/01 19:57:40;;;;;;;9.55;4.70;;;11.80;87.80;;;;;;5116515;28;20032;-39
2022/01/01 20:00:09;;;;;;;12.20;5.60;;;11.80;87.90;;;;;;5118121;28;20031;-38
2022/01/01 20:02:35;;;;;;;8.32;4.68;;;11.80;87.70;;;;;;5117260;28;20050;-37
2022/01/01 20:05:01;;;;;;;6.82;4.35;;;11.70;88.00;;;;;;5117459;28;20020;-38
2022/01/01 20:07:28;;;;;;;17.13;7.40;;;11.80;87.90;;;;;;5119333;28;20122;-37
2022/01/01 20:09:54;;;;;;;8.43;4.60;;;11.80;87.80;;;;;;5117108;28;20027;-38
2022/01/01 20:12:19;;;;;;;8.82;4.72;;;11.80;87.50;;;;;;5116378;28;20038;-37
2022/01/01 20:14:47;;;;;;;6.60;4.50;;;11.80;87.70;;;;;;5116848;28;20108;-40
2022/01/01 20:17:12;;;;;;;7.13;4.75;;;11.80;87.70;;;;;;5115989;28;20041;-38
2022/01/01 20:19:39;;;;;;;8.82;5.32;;;11.70;87.90;;;;;;5115535;28;20028;-38
2022/01/01 20:22:10;;;;;;;7.95;4.22;;;11.80;87.60;;;;;;5116532;28;20087;-38
2022/01/01 20:24:38;;;;;;;8.18;4.68;;;11.80;87.40;;;;;;5116783;28;20023;-38
2022/01/01 20:27:04;;;;;;;6.45;4.10;;;11.80;87.60;;;;;;5116467;28;20542;-38
2022/01/01 20:29:30;;;;;;;7.45;4.22;;;11.80;87.40;;;;;;5116074;28;20102;-39
2022/01/01 20:32:00;;;;;;;9.10;4.47;;;11.80;87.60;;;;;;5115404;28;20059;-37
2022/01/01 20:34:26;;;;;;;7.82;4.65;;;11.70;88.10;;;;;;5115994;28;20032;-38
2022/01/01 20:36:52;;;;;;;9.80;5.03;;;11.80;87.70;;;;;;5115505;28;20076;-38
2022/01/01 20:39:18;;;;;;;7.53;4.75;;;11.80;87.70;;;;;;5115583;28;20433;-39
2022/01/01 20:41:44;;;;;;;9.65;4.28;;;11.90;87.40;;;;;;5115451;28;20034;-37
2022/01/01 20:44:10;;;;;;;5.75;4.38;;;11.80;87.40;;;;;;5115778;28;20352;-36
2022/01/01 20:46:36;;;;;;;7.18;4.80;;;11.80;87.50;;;;;;5114171;28;20030;-38
2022/01/01 20:49:02;;;;;;;6.63;4.28;;;11.70;87.80;;;;;;5115634;28;20494;-38
2022/01/01 20:51:27;;;;;;;8.10;4.65;;;11.70;88.00;;;;;;5115718;28;20383;-38
2022/01/01 20:53:53;;;;;;;8.07;4.45;;;11.60;88.10;;;;;;5116185;28;20028;-38
2022/01/01 20:56:19;;;;;;;11.65;4.90;;;11.60;88.20;;;;;;5115919;28;20054;-39
2022/01/01 20:58:45;;;;;;;6.93;4.05;;;11.70;88.20;;;;;;5116843;28;20028;-37
2022/01/01 21:01:13;;;;;;;12.25;4.90;;;11.60;88.00;;;;;;5114687;28;20051;-45
2022/01/01 21:03:46;;;;;;;9.88;6.05;;;11.60;88.10;;;;;;5116037;28;20532;-38
2022/01/01 21:06:17;;;;;;;8.75;4.38;;;11.60;88.00;;;;;;5116655;28;20016;-39
2022/01/01 21:08:43;;;;;;;;;;;11.70;87.70;;;;;;5116610;28;20024;-38
2022/01/01 21:11:11;;;;;;;5.85;3.38;;;11.60;87.70;;;;;;5115143;28;19914;-38
2022/01/01 21:13:39;;;;;;;6.38;3.53;;;11.60;88.00;;;;;;5115059;28;20039;-38
2022/01/01 21:16:05;;;;;;;5.95;3.80;;;11.60;88.00;;;;;;5114410;28;20020;-38
2022/01/01 21:18:31;;;;;;;6.47;3.75;;;11.50;88.00;;;;;;5115461;28;20034;-38
2022/01/01 21:20:57;;;;;;;5.78;3.15;;;11.40;88.20;;;;;;5113220;28;20027;-38
2022/01/01 21:23:25;;;;;;;5.75;4.13;;;11.30;88.40;;;;;;5114397;28;20089;-38
2022/01/01 21:25:51;;;;;;;9.13;4.97;;;11.30;88.60;;;;;;5114781;28;20111;-38
2022/01/01 21:28:17;;;;;;;7.05;4.07;;;11.30;88.70;;;;;;5114565;28;20073;-38
2022/01/01 21:30:43;;;;;;;9.93;3.90;;;11.30;88.80;;;;;;5114322;28;20023;-38
2022/01/01 21:33:09;;;;;;;7.70;3.63;;;11.40;88.20;;;;;;5115106;28;20054;-37
2022/01/01 21:35:35;;;;;;;5.80;3.55;;;11.30;88.40;;;;;;5113218;28;20095;-37
2022/01/01 21:38:04;;;;;;;7.50;4.75;;;11.20;88.70;;;;;;5115697;28;20027;-38
2022/01/01 21:40:30;;;;;;;9.20;4.35;;;11.20;89.00;;;;;;5113263;28;20016;-38
2022/01/01 21:42:55;;;;;;;8.23;4.82;;;11.30;89.00;;;;;;5114519;28;20024;-37
2022/01/01 21:45:21;;;;;;;11.77;5.53;;;11.20;88.80;;;;;;5115304;28;20026;-38
2022/01/01 21:47:47;;;;;;;8.80;5.10;;;11.20;89.30;;;;;;5113389;28;20027;-38
2022/01/01 21:50:13;;;;;;;13.98;5.40;;;11.30;88.40;;;;;;5115485;28;20015;-38
2022/01/01 21:52:42;;;;;;;8.23;4.80;;;11.50;87.80;;;;;;5115572;28;20023;-41
2022/01/01 21:55:08;;;;;;;8.98;4.63;;;11.50;87.60;;;;;;5115278;28;20048;-38
2022/01/01 21:57:33;;;;;;;10.52;4.75;;;11.40;87.30;;;;;;5116059;28;20026;-39
2022/01/01 21:59:59;;;;;;;12.32;5.82;;;11.30;87.80;;;;;;5116100;28;20028;-39
2022/01/01 22:02:26;;;;;;;15.80;7.55;;;11.20;88.10;;;;;;5113195;28;20043;-38
2022/01/01 22:04:51;;;;;;;11.73;5.15;;;11.20;88.50;;;;;;5115633;28;20030;-37
2022/01/01 22:07:17;;;;;;;11.02;6.88;;;11.30;88.50;;;;;;5114511;28;20027;-38
2022/01/01 22:09:43;;;;;;;6.13;3.83;;;11.30;88.30;;;;;;5115161;28;20028;-38
2022/01/01 22:12:09;;;;;;;5.00;3.33;;;11.30;87.60;;;;;;5115364;28;20106;-38
2022/01/01 22:14:34;;;;;;;11.35;6.22;;;11.30;87.60;;;;;;5114230;28;20467;-38
2022/01/01 22:17:00;;;;;;;7.85;3.83;;;11.40;87.60;;;;;;5114498;28;20385;-38
2022/01/01 22:19:27;;;;;;;8.80;4.05;;;11.30;87.00;;;;;;5116198;28;20023;-38
2022/01/01 22:21:53;;;;;;;5.95;3.95;;;11.30;87.40;;;;;;5114047;28;20050;-38
2022/01/01 22:24:18;;;;;;;6.43;3.10;;;11.30;87.20;;;;;;5117568;28;20024;-38
2022/01/01 22:26:44;;;;;;;4.65;2.95;;;11.40;86.60;;;;;;5117258;28;20379;-38
2022/01/01 22:29:10;;;;;;;4.30;3.08;;;11.50;86.30;;;;;;5118334;28;20410;-37
2022/01/01 22:31:35;;;;;;;4.22;3.10;;;11.50;86.00;;;;;;5118520;28;20376;-37
2022/01/01 22:34:01;;;;;;;5.93;2.78;;;11.40;86.40;;;;;;5118819;28;20026;-38
2022/01/01 22:36:26;;;;;;;4.95;3.05;;;11.50;86.00;;;;;;5119046;28;20115;-38
2022/01/01 22:38:52;;;;;;;3.22;2.47;;;11.50;86.10;;;;;;5117513;28;20106;-39
2022/01/01 22:41:18;;;;;;;5.80;2.85;;;11.50;85.40;;;;;;5117782;28;20032;-39
2022/01/01 22:43:44;;;;;;;5.03;2.95;;;11.50;85.50;;;;;;5118080;28;20020;-38
2022/01/01 22:46:10;;;;;;;6.82;3.50;;;11.70;84.90;;;;;;5118757;28;20020;-39
2022/01/01 22:48:36;;;;;;;6.50;4.88;;;11.70;84.90;;;;;;5119834;28;20051;-38
2022/01/01 22:51:03;;;;;;;5.32;3.22;;;11.60;84.70;;;;;;5119035;28;20044;-38
2022/01/01 22:53:28;;;;;;;7.60;3.08;;;11.70;84.40;;;;;;5117037;28;20374;-37
2022/01/01 22:55:55;;;;;;;7.40;3.88;;;11.80;84.20;;;;;;5118383;28;20019;-40
2022/01/01 22:58:22;;;;;;;7.30;3.08;;;11.70;84.10;;;;;;5117663;28;20066;-38
